Time;durP1;ratioP1;P1;durP2;ratioP2;P2;SDS_P1;SDS_P2;PMS_P1;PMS_P2;Temp;Humidity;BMP_temperature;BMP_pressure;BME280_temperature;BME280_humidity;BME280_pressure;Samples;Min_cycle;Max_cycle;Signal;HPM_P1;HPM_P2
2021/12/16 00:33:58;;;;;;;;;;;2.90;99.90;;;;;;5078449;28;19991;-88
2021/12/16 00:36:24;;;;;;;;;;;3.00;99.90;;;;;;5059358;28;20405;-90
2021/12/16 00:38:50;;;;;;;;;;;3.10;99.90;;;;;;5060031;28;19926;-88
2021/12/16 00:41:16;;;;;;;;;;;3.00;99.90;;;;;;5059150;28;19904;-87
2021/12/16 00:43:49;;;;;;;;;;;3.00;99.90;;;;;;5059015;28;19911;-88
2021/12/16 00:46:57;;;;;;;;;;;2.90;99.90;;;;;;5059983;28;19954;-91
2021/12/16 00:54:29;;;;;;;;;;;2.90;99.90;;;;;;5077390;28;19934;-90
2021/12/16 00:57:01;;;;;;;;;;;3.10;99.90;;;;;;5059010;28;19957;-89
2021/12/16 00:59:32;;;;;;;;;;;3.10;99.90;;;;;;5059557;28;19908;-90
2021/12/16 01:02:13;;;;;;;;;;;3.20;99.90;;;;;;5055823;28;20012;-88
2021/12/16 01:47:53;;;;;;;;;;;2.90;99.90;;;;;;5033388;28;20012;-89
2021/12/16 01:50:49;;;;;;;;;;;2.90;99.90;;;;;;5026771;28;19928;-89
2021/12/16 01:53:24;;;;;;;;;;;3.00;99.90;;;;;;5055713;28;20321;-90
2021/12/16 01:56:01;;;;;;;;;;;2.80;99.90;;;;;;5055572;28;19912;-89
2021/12/16 01:58:30;;;;;;;;;;;2.60;99.90;;;;;;5055532;28;19911;-88
2021/12/16 02:01:19;;;;;;;;;;;2.60;99.90;;;;;;5059159;28;20429;-88
2021/12/16 02:03:54;;;;;;;;;;;2.60;99.90;;;;;;5059136;28;19909;-89
2021/12/16 02:06:42;;;;;;;;;;;2.70;99.90;;;;;;5059171;28;19904;-88
2021/12/16 02:09:13;;;;;;;;;;;2.70;99.90;;;;;;5055725;28;19944;-89
2021/12/16 02:33:21;;;;;;;;;;;2.50;99.90;;;;;;5054569;28;19915;-89
2021/12/16 02:35:58;;;;;;;;;;;2.60;99.90;;;;;;5041570;28;19935;-88
2021/12/16 02:38:28;;;;;;;;;;;2.40;99.90;;;;;;5070777;28;19905;-90
2021/12/16 02:40:53;;;;;;;;;;;2.30;99.90;;;;;;5038256;28;19909;-88
2021/12/16 02:48:38;;;;;;;;;;;2.60;99.90;;;;;;5055460;28;19912;-89
2021/12/16 02:51:15;;;;;;;;;;;2.50;99.90;;;;;;5070166;28;20014;-88
2021/12/16 02:53:45;;;;;;;;;;;2.60;99.90;;;;;;5055197;28;20340;-89
2021/12/16 02:56:10;;;;;;;;;;;2.60;99.90;;;;;;5070215;28;20320;-88
2021/12/16 02:58:38;;;;;;;;;;;2.50;99.90;;;;;;5070351;28;19911;-90
2021/12/16 03:01:06;;;;;;;;;;;2.40;99.90;;;;;;5052939;28;19919;-89
2021/12/16 03:03:35;;;;;;;;;;;2.30;99.90;;;;;;5070305;28;19937;-89
2021/12/16 03:06:02;;;;;;;;;;;2.30;99.90;;;;;;5070332;28;20272;-88
2021/12/16 03:08:28;;;;;;;;;;;2.40;99.90;;;;;;5070027;28;19912;-91
2021/12/16 03:11:15;;;;;;;;;;;2.40;99.90;;;;;;5069816;28;19912;-89
2021/12/16 03:13:50;;;;;;;;;;;2.60;99.90;;;;;;5054511;28;19928;-89
2021/12/16 03:16:27;;;;;;;;;;;2.60;99.90;;;;;;5054994;28;19947;-87
2021/12/16 03:19:10;;;;;;;;;;;2.60;99.90;;;;;;5071837;28;19908;-89
2021/12/16 03:21:44;;;;;;;;;;;2.50;99.90;;;;;;5072093;28;19928;-88
2021/12/16 03:27:28;;;;;;;;;;;2.60;99.90;;;;;;5054927;28;19912;-88
2021/12/16 03:35:24;;;;;;;;;;;2.60;99.90;;;;;;5035063;28;19905;-88
2021/12/16 03:37:50;;;;;;;;;;;2.60;99.90;;;;;;5053417;28;20383;-88
2021/12/16 03:40:16;;;;;;;;;;;2.60;99.90;;;;;;5070345;28;19905;-89
2021/12/16 03:42:43;;;;;;;;;;;2.60;99.90;;;;;;5074019;28;19904;-90
2021/12/16 03:48:15;;;;;;;;;;;2.60;99.90;;;;;;5058775;28;20027;-90
2021/12/16 03:50:41;;;;;;;;;;;2.40;99.90;;;;;;5059322;28;19908;-88
2021/12/16 03:53:06;;;;;;;;;;;2.60;99.90;;;;;;5073510;28;20271;-88
2021/12/16 03:55:33;;;;;;;;;;;2.60;99.90;;;;;;5073491;28;20328;-89
2021/12/16 03:57:58;;;;;;;;;;;2.50;99.90;;;;;;5073394;28;19911;-88
2021/12/16 04:00:27;;;;;;;;;;;2.50;99.90;;;;;;5072952;28;19995;-89
2021/12/16 04:02:53;;;;;;;;;;;2.60;99.90;;;;;;5073249;28;20315;-87
2021/12/16 04:05:21;;;;;;;;;;;2.60;99.90;;;;;;5058053;28;19904;-87
2021/12/16 04:07:48;;;;;;;;;;;2.60;99.90;;;;;;5058017;28;20366;-91
2021/12/16 04:10:31;;;;;;;;;;;2.50;99.90;;;;;;5073391;28;19924;-87
2021/12/16 04:12:56;;;;;;;;;;;2.30;99.90;;;;;;5058027;28;19909;-88
2021/12/16 04:15:22;;;;;;;;;;;2.30;99.90;;;;;;5057749;28;20256;-89
2021/12/16 04:17:47;;;;;;;;;;;2.30;99.90;;;;;;5040342;28;19916;-87
2021/12/16 04:20:14;;;;;;;;;;;2.40;99.90;;;;;;5073235;28;19909;-88
2021/12/16 04:22:43;;;;;;;;;;;2.40;99.90;;;;;;5073230;28;20009;-88
2021/12/16 04:25:13;;;;;;;;;;;2.30;99.90;;;;;;5073173;28;19935;-87
2021/12/16 04:27:39;;;;;;;;;;;2.30;99.90;;;;;;5073150;28;19908;-89
2021/12/16 04:30:06;;;;;;;;;;;2.40;99.90;;;;;;5073064;28;19908;-89
2021/12/16 04:32:32;;;;;;;;;;;2.50;99.90;;;;;;5073254;28;19909;-88
2021/12/16 04:34:57;;;;;;;;;;;2.50;99.90;;;;;;5074501;28;19904;-90
2021/12/16 04:37:23;;;;;;;;;;;2.50;99.90;;;;;;5043996;28;19999;-90
2021/12/16 04:39:49;;;;;;;;;;;2.50;99.90;;;;;;5062858;28;19913;-89
2021/12/16 04:42:17;;;;;;;;;;;2.40;99.90;;;;;;5080301;28;19905;-88
2021/12/16 04:44:43;;;;;;;;;;;2.30;99.90;;;;;;5077544;28;20005;-89
2021/12/16 04:47:09;;;;;;;;;;;2.20;99.90;;;;;;5041601;28;19976;-89
2021/12/16 04:49:35;;;;;;;;;;;2.20;99.90;;;;;;5057498;28;19915;-89
2021/12/16 04:52:03;;;;;;;;;;;2.20;99.90;;;;;;5072480;28;19909;-88
2021/12/16 04:54:29;;;;;;;;;;;2.20;99.90;;;;;;5056595;28;19948;-89
2021/12/16 04:56:56;;;;;;;;;;;2.40;99.90;;;;;;5073399;28;19943;-88
2021/12/16 04:59:23;;;;;;;;;;;2.30;99.90;;;;;;5073168;28;19904;-89
2021/12/16 05:01:53;;;;;;;;;;;2.40;99.90;;;;;;5056284;28;19962;-88
2021/12/16 05:04:18;;;;;;;;;;;2.30;99.90;;;;;;5073995;28;19916;-90
2021/12/16 05:06:44;;;;;;;;;;;2.20;99.90;;;;;;5073778;28;19905;-87
2021/12/16 05:09:24;;;;;;;;;;;2.30;99.90;;;;;;5073977;28;20355;-89
2021/12/16 05:11:50;;;;;;;;;;;2.30;99.90;;;;;;5074373;28;20070;-89
2021/12/16 05:14:19;;;;;;;;;;;2.30;99.90;;;;;;5074161;28;20372;-88
2021/12/16 05:16:45;;;;;;;;;;;2.20;99.90;;;;;;5042790;28;19908;-88
2021/12/16 05:19:11;;;;;;;;;;;2.30;99.90;;;;;;5042305;28;19915;-89
2021/12/16 05:24:31;;;;;;;;;;;2.30;99.90;;;;;;5077847;28;19895;-89
2021/12/16 05:27:03;;;;;;;;;;;2.30;99.90;;;;;;5095943;28;19905;-88
2021/12/16 05:29:29;;;;;;;;;;;2.20;99.90;;;;;;5100088;28;19904;-89
2021/12/16 05:31:55;;;;;;;;;;;2.10;99.90;;;;;;5082607;28;19939;-89
2021/12/16 05:34:21;;;;;;;;;;;2.10;99.90;;;;;;5083318;28;19915;-89
2021/12/16 05:36:47;;;;;;;;;;;2.20;99.90;;;;;;5083427;28;19912;-90
2021/12/16 05:39:14;;;;;;;;;;;2.40;99.90;;;;;;5066356;28;19942;-89
2021/12/16 05:41:40;;;;;;;;;;;2.50;99.90;;;;;;5064553;28;19905;-90
2021/12/16 05:44:05;;;;;;;;;;;2.50;99.90;;;;;;5066106;28;19909;-88
2021/12/16 05:46:31;;;;;;;;;;;2.20;99.90;;;;;;5043882;28;19909;-87
2021/12/16 05:48:58;;;;;;;;;;;2.10;99.90;;;;;;5058494;28;19954;-86
2021/12/16 05:51:35;;;;;;;;;;;2.10;99.90;;;;;;5058775;28;19936;-90
2021/12/16 05:54:02;;;;;;;;;;;2.20;99.90;;;;;;5058567;28;20373;-88
2021/12/16 05:56:27;;;;;;;;;;;2.20;99.90;;;;;;5058319;28;19911;-87
2021/12/16 05:58:53;;;;;;;;;;;2.40;99.90;;;;;;5059561;28;19999;-88
2021/12/16 06:01:21;;;;;;;;;;;2.40;99.90;;;;;;5058304;28;19927;-90
2021/12/16 06:03:47;;;;;;;;;;;2.40;99.90;;;;;;5057812;28;19912;-87
2021/12/16 06:06:13;;;;;;;;;;;2.40;99.90;;;;;;5057891;28;20328;-89
2021/12/16 06:08:39;;;;;;;;;;;2.30;99.90;;;;;;5057697;28;19944;-88
2021/12/16 06:11:20;;;;;;;;;;;2.20;99.90;;;;;;5057814;28;19912;-88
2021/12/16 06:14:16;;;;;;;;;;;2.10;99.90;;;;;;5058255;28;19904;-89
2021/12/16 06:27:37;;;;;;;;;;;2.40;99.90;;;;;;5077958;28;20275;-89
2021/12/16 06:30:08;;;;;;;;;;;2.30;99.90;;;;;;5057328;28;19909;-90
2021/12/16 06:32:34;;;;;;;;;;;2.40;99.90;;;;;;5057649;28;19912;-89
2021/12/16 06:35:00;;;;;;;;;;;2.40;99.90;;;;;;5058104;28;20382;-87
2021/12/16 06:37:25;;;;;;;;;;;2.20;99.90;;;;;;5058341;28;19904;-89
2021/12/16 06:39:53;;;;;;;;;;;2.30;99.90;;;;;;5042519;28;19908;-89
2021/12/16 06:42:19;;;;;;;;;;;2.20;99.90;;;;;;5059628;28;19916;-88
2021/12/16 06:45:02;;;;;;;;;;;2.30;99.90;;;;;;5053807;28;19904;-89
2021/12/16 06:47:36;;;;;;;;;;;2.30;99.90;;;;;;5038028;28;19911;-90
2021/12/16 06:50:02;;;;;;;;;;;2.40;99.90;;;;;;5037915;28;19955;-90
2021/12/16 06:52:35;;;;;;;;;;;2.40;99.90;;;;;;5038023;28;19951;-88
2021/12/16 06:55:11;;;;;;;;;;;2.30;99.90;;;;;;5037861;28;19908;-91
2021/12/16 06:57:52;;;;;;;;;;;2.20;99.90;;;;;;5037837;28;20318;-90
2021/12/16 07:00:28;;;;;;;;;;;2.20;99.90;;;;;;5038186;28;20255;-90
2021/12/16 07:03:06;;;;;;;;;;;2.20;99.90;;;;;;5037601;28;20001;-89
2021/12/16 07:05:36;;;;;;;;;;;2.20;99.90;;;;;;5037705;28;19912;-87
2021/12/16 07:08:03;;;;;;;;;;;2.10;99.90;;;;;;5038029;28;20312;-88
2021/12/16 07:10:29;;;;;;;;;;;2.00;99.90;;;;;;5037198;28;20011;-87
2021/12/16 07:12:56;;;;;;;;;;;2.10;99.90;;;;;;5055095;28;19974;-87
2021/12/16 07:15:23;;;;;;;;;;;2.20;99.90;;;;;;5036384;28;20275;-88
2021/12/16 07:17:49;;;;;;;;;;;2.20;99.90;;;;;;5036616;28;19947;-89
2021/12/16 07:20:17;;;;;;;;;;;2.20;99.90;;;;;;5036824;28;20355;-90
2021/12/16 07:22:43;;;;;;;;;;;2.20;99.90;;;;;;5036750;28;19904;-89
2021/12/16 07:25:08;;;;;;;;;;;2.20;99.90;;;;;;5036791;28;19915;-88
2021/12/16 07:27:36;;;;;;;;;;;2.20;99.90;;;;;;5056542;28;19905;-89
2021/12/16 07:30:04;;;;;;;;;;;2.30;99.90;;;;;;5055961;28;20002;-87
2021/12/16 07:32:30;;;;;;;;;;;2.20;99.90;;;;;;5055993;28;20447;-88
2021/12/16 07:34:55;;;;;;;;;;;2.30;99.90;;;;;;5060604;28;19963;-87
2021/12/16 07:37:21;;;;;;;;;;;2.40;99.90;;;;;;5062726;28;19915;-88
2021/12/16 07:39:49;;;;;;;;;;;2.30;99.90;;;;;;5062780;28;19916;-86
2021/12/16 07:42:23;;;;;;;;;;;2.60;99.90;;;;;;5078849;28;19983;-87
2021/12/16 07:44:48;;;;;;;;;;;2.40;99.90;;;;;;5053324;28;20384;-87
2021/12/16 07:47:14;;;;;;;;;;;2.60;99.90;;;;;;5056959;28;19912;-88
2021/12/16 07:49:41;;;;;;;;;;;2.50;99.90;;;;;;5056896;28;20260;-88
2021/12/16 07:52:08;;;;;;;;;;;2.80;99.90;;;;;;5056729;28;20012;-90
2021/12/16 07:54:37;;;;;;;;;;;2.60;99.90;;;;;;5056830;28;19908;-90
2021/12/16 07:57:03;;;;;;;;;;;2.60;99.90;;;;;;5075635;28;19908;-88
2021/12/16 07:59:29;;;;;;;;;;;2.50;99.90;;;;;;5079454;28;20315;-85
2021/12/16 08:01:57;;;;;;;;;;;2.80;99.90;;;;;;5079208;28;19916;-89
2021/12/16 08:04:28;;;;;;;;;;;2.90;99.90;;;;;;5078429;28;19908;-87
2021/12/16 08:06:55;;;;;;;;;;;2.90;99.90;;;;;;5037271;28;19915;-87
2021/12/16 08:09:21;;;;;;;;;;;3.10;99.90;;;;;;5056897;28;19908;-88
2021/12/16 08:11:49;;;;;;;;;;;3.00;99.90;;;;;;5072742;28;19920;-86
2021/12/16 08:14:15;;;;;;;;;;;3.20;99.90;;;;;;5056325;28;19912;-86
2021/12/16 08:16:41;;;;;;;;;;;2.70;99.90;;;;;;5056090;28;19915;-91
2021/12/16 08:19:07;;;;;;;;;;;2.80;99.90;;;;;;5055888;28;19905;-88
2021/12/16 08:21:32;;;;;;;;;;;2.80;99.90;;;;;;5055835;28;19904;-88
2021/12/16 08:23:59;;;;;;;;;;;2.70;99.90;;;;;;5055810;28;20378;-87
2021/12/16 08:26:25;;;;;;;;;;;2.90;99.90;;;;;;5070560;28;19912;-86
2021/12/16 08:28:51;;;;;;;;;;;3.00;99.90;;;;;;5023025;28;20015;-88
2021/12/16 08:31:16;;;;;;;;;;;2.90;99.90;;;;;;5056197;28;20419;-87
2021/12/16 08:33:42;;;;;;;;;;;2.80;99.90;;;;;;5059800;28;19909;-87
2021/12/16 08:36:08;;;;;;;;;;;3.10;99.90;;;;;;5059487;28;20355;-87
2021/12/16 08:38:35;;;;;;;;;;;3.20;99.90;;;;;;5072699;28;19969;-87
2021/12/16 08:41:04;;;;;;;;;;;3.30;99.90;;;;;;5059001;28;19908;-89
2021/12/16 08:43:29;;;;;;;;;;;3.20;99.90;;;;;;5060320;28;19912;-87
2021/12/16 08:45:55;;;;;;;;;;;3.10;99.90;;;;;;5059873;28;20252;-87
2021/12/16 08:48:20;;;;;;;;;;;3.00;99.90;;;;;;5075893;28;19908;-89
2021/12/16 08:50:47;;;;;;;;;;;3.00;99.90;;;;;;5075428;28;19908;-88
2021/12/16 08:53:14;;;;;;;;;;;3.10;99.90;;;;;;5049784;28;20310;-86
2021/12/16 08:55:41;;;;;;;;;;;3.30;99.90;;;;;;5055419;28;19956;-88
2021/12/16 08:58:06;;;;;;;;;;;3.50;99.90;;;;;;5055583;28;19904;-89
2021/12/16 09:00:37;;;;;;;;;;;3.40;99.90;;;;;;5054809;28;19959;-87
2021/12/16 09:03:03;;;;;;;;;;;3.40;99.90;;;;;;5055157;28;19917;-88
2021/12/16 09:05:28;;;;;;;;;;;3.30;99.90;;;;;;5055603;28;19913;-89
2021/12/16 09:07:55;;;;;;;;;;;3.10;99.90;;;;;;5058519;28;20000;-87
2021/12/16 09:10:28;;;;;;;;;;;3.00;99.90;;;;;;5058604;28;20011;-90
2021/12/16 09:13:02;;;;;;;;;;;3.00;99.90;;;;;;5076921;28;19911;-90
2021/12/16 09:15:29;;;;;;;;;;;3.10;99.90;;;;;;5072961;28;19936;-88
2021/12/16 09:17:55;;;;;;;;;;;3.20;99.90;;;;;;5058347;28;19904;-88
2021/12/16 09:20:20;;;;;;;;;;;3.20;99.90;;;;;;5058366;28;20244;-88
2021/12/16 09:22:46;;;;;;;;;;;3.40;99.90;;;;;;5058162;28;20355;-87
2021/12/16 09:25:12;;;;;;;;;;;3.50;99.90;;;;;;5076380;28;19908;-88
2021/12/16 09:27:39;;;;;;;;;;;3.20;99.90;;;;;;5075897;28;19916;-89
2021/12/16 09:30:07;;;;;;;;;;;3.20;99.90;;;;;;5058023;28;19905;-87
2021/12/16 09:32:33;;;;;;;;;;;3.20;99.90;;;;;;5075228;28;19912;-89
2021/12/16 09:34:58;;;;;;;;;;;2.80;99.90;;;;;;5057621;28;20327;-91
2021/12/16 09:37:24;;;;;;;;;;;2.80;99.90;;;;;;5081386;28;19908;-87
2021/12/16 09:39:53;;;;;;;;;;;2.90;99.90;;;;;;5046445;28;19905;-88
2021/12/16 09:42:18;;;;;;;;;;;3.00;99.90;;;;;;5049036;28;20282;-88
2021/12/16 09:44:44;;;;;;;;;;;3.10;99.90;;;;;;5074711;28;19991;-88
2021/12/16 09:47:13;;;;;;;;;;;3.30;99.90;;;;;;5074855;28;19909;-88
2021/12/16 09:49:40;;;;;;;;;;;3.50;99.90;;;;;;5074241;28;19904;-91
2021/12/16 09:52:07;;;;;;;;;;;3.60;99.90;;;;;;5057395;28;20274;-90
2021/12/16 09:54:33;;;;;;;;;;;3.50;99.90;;;;;;5074470;28;19957;-89
2021/12/16 09:56:59;;;;;;;;;;;3.50;99.90;;;;;;5056928;28;20375;-87
2021/12/16 09:59:26;;;;;;;;;;;3.20;99.90;;;;;;5075271;28;19953;-88
2021/12/16 10:01:53;;;;;;;;;;;3.30;99.90;;;;;;5056741;28;19956;-90
2021/12/16 10:04:21;;;;;;;;;;;3.40;99.90;;;;;;5057781;28;19912;-87
2021/12/16 10:06:48;;;;;;;;;;;3.40;99.90;;;;;;5057429;28;19905;-87
2021/12/16 10:09:14;;;;;;;;;;;3.50;99.90;;;;;;5057631;28;19919;-89
2021/12/16 10:11:43;;;;;;;;;;;3.50;99.90;;;;;;5056852;28;20002;-87
2021/12/16 10:19:24;;;;;;;;;;;3.40;99.90;;;;;;5073903;28;19993;-89
2021/12/16 10:21:50;;;;;;;;;;;3.50;99.90;;;;;;5075787;28;19950;-87
2021/12/16 10:24:26;;;;;;;;;;;3.80;99.90;;;;;;5074033;28;19904;-89
2021/12/16 10:27:09;;;;;;;;;;;4.40;99.90;;;;;;5067523;28;19943;-87
2021/12/16 10:29:38;;;;;;;;;;;4.70;99.90;;;;;;5059760;28;19908;-91
2021/12/16 10:32:04;;;;;;;;;;;4.90;99.90;;;;;;5069802;28;19916;-89
2021/12/16 10:34:30;;;;;;;;;;;5.00;99.90;;;;;;5080150;28;19931;-90
2021/12/16 10:36:57;;;;;;;;;;;4.50;99.90;;;;;;5077619;28;19920;-89
2021/12/16 10:39:25;;;;;;;;;;;4.20;99.90;;;;;;5059456;28;20387;-88
2021/12/16 10:42:06;;;;;;;;;;;4.10;99.90;;;;;;5058259;28;19909;-91
2021/12/16 10:44:36;;;;;;;;;;;4.00;99.90;;;;;;5062986;28;19904;-90
2021/12/16 10:47:04;;;;;;;;;;;4.00;99.90;;;;;;5076042;28;19926;-89
2021/12/16 10:49:33;;;;;;;;;;;4.10;99.90;;;;;;5074364;28;19904;-87
2021/12/16 10:52:01;;;;;;;;;;;4.10;99.90;;;;;;5073847;28;19943;-88
2021/12/16 10:54:34;;;;;;;;;;;4.10;99.90;;;;;;5074853;28;19942;-91
2021/12/16 10:57:12;;;;;;;;;;;4.20;99.90;;;;;;5073998;28;20279;-88
2021/12/16 10:59:40;;;;;;;;;;;3.90;99.90;;;;;;5056874;28;19991;-88
2021/12/16 11:02:16;;;;;;;;;;;3.80;99.90;;;;;;5056095;28;20395;-88
2021/12/16 11:04:48;;;;;;;;;;;3.80;99.90;;;;;;5056747;28;20279;-88
2021/12/16 11:07:16;;;;;;;;;;;3.80;99.90;;;;;;5074777;28;19911;-88
2021/12/16 11:09:43;;;;;;;;;;;4.10;99.90;;;;;;5056939;28;19912;-89
2021/12/16 11:12:09;;;;;;;;;;;4.20;99.90;;;;;;5057068;28;19920;-88
2021/12/16 11:14:36;;;;;;;;;;;4.10;99.90;;;;;;5065129;28;19908;-88
2021/12/16 11:17:03;;;;;;;;;;;4.20;99.90;;;;;;5056557;28;19908;-89
2021/12/16 11:19:41;;;;;;;;;;;3.90;99.90;;;;;;5036577;28;19920;-88
2021/12/16 11:22:06;;;;;;;;;;;3.80;99.90;;;;;;5053306;28;20283;-88
2021/12/16 11:24:32;;;;;;;;;;;3.80;99.90;;;;;;5064118;28;19913;-88
2021/12/16 11:26:58;;;;;;;;;;;3.80;99.90;;;;;;5056816;28;19908;-88
2021/12/16 11:29:30;;;;;;;;;;;3.90;99.90;;;;;;5056951;28;19904;-89
2021/12/16 11:31:56;;;;;;;;;;;3.90;99.90;;;;;;5056070;28;20000;-87
2021/12/16 11:34:25;;;;;;;;;;;4.10;99.90;;;;;;5040159;28;20003;-89
2021/12/16 11:36:53;;;;;;;;;;;4.20;99.90;;;;;;5074791;28;19970;-90
2021/12/16 11:39:24;;;;;;;;;;;4.10;99.90;;;;;;5056520;28;20367;-88
2021/12/16 11:41:51;;;;;;;;;;;4.00;99.90;;;;;;5056313;28;19909;-91
2021/12/16 11:44:23;;;;;;;;;;;4.00;99.90;;;;;;5056244;28;19916;-88
2021/12/16 11:46:54;;;;;;;;;;;4.10;99.90;;;;;;5056234;28;19905;-90
2021/12/16 11:49:40;;;;;;;;;;;4.30;99.90;;;;;;5055929;28;19950;-87
2021/12/16 11:52:08;;;;;;;;;;;4.10;99.90;;;;;;5055172;28;19912;-90
2021/12/16 11:54:34;;;;;;;;;;;4.40;99.90;;;;;;5056202;28;19932;-87
2021/12/16 11:57:05;;;;;;;;;;;4.20;99.90;;;;;;5056072;28;19939;-89
2021/12/16 11:59:35;;;;;;;;;;;4.50;99.90;;;;;;5052697;28;19913;-88
2021/12/16 12:02:01;;;;;;;;;;;4.40;99.90;;;;;;5042692;28;19916;-90
2021/12/16 12:04:28;;;;;;;;;;;4.30;99.90;;;;;;5041592;28;19909;-92
2021/12/16 12:06:54;;;;;;;;;;;4.20;99.90;;;;;;5025256;28;19912;-90
2021/12/16 12:09:31;;;;;;;;;;;4.00;99.90;;;;;;5058915;28;19905;-89
2021/12/16 12:11:57;;;;;;;;;;;4.00;99.90;;;;;;5040996;28;19913;-90
2021/12/16 12:14:29;;;;;;;;;;;4.10;99.90;;;;;;5040641;28;19978;-89
2021/12/16 12:17:01;;;;;;;;;;;4.10;99.90;;;;;;5040363;28;19954;-88
2021/12/16 12:19:27;;;;;;;;;;;4.00;99.90;;;;;;5043569;28;19927;-87
2021/12/16 12:21:56;;;;;;;;;;;4.00;99.90;;;;;;5040172;28;20364;-89
2021/12/16 12:24:35;;;;;;;;;;;3.90;99.90;;;;;;5059225;28;19908;-89
2021/12/16 12:27:03;;;;;;;;;;;3.80;99.90;;;;;;5059584;28;20275;-88
2021/12/16 12:29:31;;;;;;;;;;;3.80;99.90;;;;;;5059515;28;19904;-88
2021/12/16 12:31:59;;;;;;;;;;;3.90;99.90;;;;;;5060142;28;19936;-90
2021/12/16 12:34:25;;;;;;;;;;;4.00;99.90;;;;;;5067310;28;19987;-90
2021/12/16 12:36:52;;;;;;;;;;;4.00;99.90;;;;;;5069177;28;19904;-89
2021/12/16 12:39:20;;;;;;;;;;;3.90;99.90;;;;;;5066030;28;19958;-88
2021/12/16 12:41:46;;;;;;;;;;;3.80;99.90;;;;;;5060567;28;19954;-91
2021/12/16 12:44:12;;;;;;;;;;;3.90;99.90;;;;;;5059391;28;20305;-88
2021/12/16 12:46:42;;;;;;;;;;;3.90;99.90;;;;;;5077350;28;20303;-89
2021/12/16 12:49:09;;;;;;;;;;;3.70;99.90;;;;;;5077436;28;19905;-90
2021/12/16 12:51:46;;;;;;;;;;;3.60;99.90;;;;;;5059604;28;19998;-89
2021/12/16 12:54:21;;;;;;;;;;;3.70;99.90;;;;;;5043322;28;20314;-90
2021/12/16 12:56:47;;;;;;;;;;;3.70;99.90;;;;;;5043628;28;19919;-88
2021/12/16 12:59:15;;;;;;;;;;;3.80;99.90;;;;;;5039258;28;19931;-87
2021/12/16 13:01:44;;;;;;;;;;;4.00;99.90;;;;;;5058575;28;19917;-90
2021/12/16 13:04:30;;;;;;;;;;;4.00;99.90;;;;;;5039454;28;19915;-88
2021/12/16 13:07:04;;;;;;;;;;;3.80;99.90;;;;;;5052815;28;19908;-91
2021/12/16 13:09:32;;;;;;;;;;;3.80;99.90;;;;;;5058647;28;19909;-87
2021/12/16 13:11:58;;;;;;;;;;;3.80;99.90;;;;;;5041622;28;20010;-87
2021/12/16 13:14:40;;;;;;;;;;;3.80;99.90;;;;;;5057181;28;19904;-88
2021/12/16 13:28:21;;;;;;;;;;;4.00;99.90;;;;;;5078849;28;20404;-90
2021/12/16 13:31:08;;;;;;;;;;;4.00;99.90;;;;;;5082690;28;19911;-88
2021/12/16 13:33:39;;;;;;;;;;;4.10;99.90;;;;;;5082235;28;19911;-87
2021/12/16 13:36:17;;;;;;;;;;;4.10;99.90;;;;;;5047775;28;19999;-88
2021/12/16 13:38:45;;;;;;;;;;;4.00;99.90;;;;;;5060747;28;19939;-88
2021/12/16 13:41:12;;;;;;;;;;;4.00;99.90;;;;;;5059310;28;19948;-87
2021/12/16 13:43:38;;;;;;;;;;;3.90;99.90;;;;;;5059649;28;20073;-86
2021/12/16 13:58:07;;;;;;;;;;;3.90;99.90;;;;;;5063066;28;20418;-89
2021/12/16 14:06:16;;;;;;;;;;;4.20;99.90;;;;;;4975812;28;19916;-87
2021/12/16 14:08:44;;;;;;;;;;;3.90;99.90;;;;;;5043360;28;19909;-91
2021/12/16 14:14:23;;;;;;;;;;;3.90;99.90;;;;;;5040345;28;19915;-88
2021/12/16 14:25:17;;;;;;;;;;;3.90;99.90;;;;;;5042758;28;19920;-90
2021/12/16 14:41:51;;;;;;;;;;;3.70;99.90;;;;;;5054055;28;19905;-86
2021/12/16 14:44:19;;;;;;;;;;;3.60;99.90;;;;;;5048977;28;19904;-89
2021/12/16 14:47:00;;;;;;;;;;;3.60;99.90;;;;;;5049771;28;19916;-88
2021/12/16 14:49:34;;;;;;;;;;;3.70;99.90;;;;;;5048902;28;19986;-88
2021/12/16 14:52:01;;;;;;;;;;;3.60;99.90;;;;;;5053860;28;19913;-91
2021/12/16 14:54:27;;;;;;;;;;;3.70;99.90;;;;;;5054050;28;19905;-89
2021/12/16 14:57:02;;;;;;;;;;;3.60;99.90;;;;;;5054024;28;19915;-89
2021/12/16 14:59:29;;;;;;;;;;;3.50;99.90;;;;;;5054115;28;20077;-88
2021/12/16 15:01:59;;;;;;;;;;;3.40;99.90;;;;;;5054016;28;19917;-89
2021/12/16 15:04:26;;;;;;;;;;;3.20;99.90;;;;;;5058310;28;20339;-90
2021/12/16 15:07:02;;;;;;;;;;;3.40;99.90;;;;;;5058690;28;20004;-89
2021/12/16 15:09:31;;;;;;;;;;;3.40;99.90;;;;;;5055260;28;19911;-89
2021/12/16 15:12:08;;;;;;;;;;;3.40;99.90;;;;;;5054693;28;19913;-91
2021/12/16 15:17:14;;;;;;;;;;;3.40;99.90;;;;;;5057101;28;19905;-92
2021/12/16 15:44:45;;;;;;;;;;;3.30;99.90;;;;;;5034765;28;19912;-90
2021/12/16 15:47:11;;;;;;;;;;;3.20;99.90;;;;;;5035129;28;20002;-89
2021/12/16 15:49:37;;;;;;;;;;;3.00;99.90;;;;;;5034085;28;19956;-89
2021/12/16 15:52:02;;;;;;;;;;;3.00;99.90;;;;;;5037574;28;20024;-88
2021/12/16 15:54:32;;;;;;;;;;;3.20;99.90;;;;;;5053575;28;19909;-90
2021/12/16 15:56:58;;;;;;;;;;;3.20;99.90;;;;;;5055514;28;20485;-90
2021/12/16 15:59:28;;;;;;;;;;;3.30;99.90;;;;;;5034753;28;19955;-88
2021/12/16 16:01:55;;;;;;;;;;;3.30;99.90;;;;;;5037959;28;19917;-89
2021/12/16 16:04:22;;;;;;;;;;;3.30;99.90;;;;;;5038437;28;20424;-89
2021/12/16 16:06:50;;;;;;;;;;;3.30;99.90;;;;;;5052525;28;19911;-87
2021/12/16 16:09:16;;;;;;;;;;;3.20;99.90;;;;;;5017002;28;19909;-91
2021/12/16 16:11:45;;;;;;;;;;;3.10;99.90;;;;;;5033607;28;20003;-89
2021/12/16 16:14:11;;;;;;;;;;;3.00;99.90;;;;;;5034587;28;20011;-88
2021/12/16 16:16:44;;;;;;;;;;;3.00;99.90;;;;;;5034321;28;20332;-89
2021/12/16 16:19:10;;;;;;;;;;;3.10;99.90;;;;;;5018639;28;19913;-91
2021/12/16 16:21:39;;;;;;;;;;;3.10;99.90;;;;;;5035609;28;19905;-90
2021/12/16 16:24:06;;;;;;;;;;;3.10;99.90;;;;;;5038619;28;20375;-89
2021/12/16 16:26:32;;;;;;;;;;;3.10;99.90;;;;;;5041896;28;19905;-88
2021/12/16 16:29:00;;;;;;;;;;;3.20;99.90;;;;;;5024483;28;20360;-87
2021/12/16 16:31:26;;;;;;;;;;;3.20;99.90;;;;;;5038424;28;19953;-89
2021/12/16 16:33:55;;;;;;;;;;;3.10;99.90;;;;;;5035065;28;19912;-90
2021/12/16 16:36:25;;;;;;;;;;;3.00;99.90;;;;;;5034969;28;19927;-89
2021/12/16 16:38:53;;;;;;;;;;;3.00;99.90;;;;;;5035339;28;19920;-90
2021/12/16 16:41:20;;;;;;;;;;;3.00;99.90;;;;;;5035269;28;19905;-89
2021/12/16 16:43:52;;;;;;;;;;;3.00;99.90;;;;;;5035441;28;19905;-91
2021/12/16 16:46:47;;;;;;;;;;;3.10;99.90;;;;;;5035719;28;19905;-88
2021/12/16 16:49:26;;;;;;;;;;;3.00;99.90;;;;;;5041177;28;19905;-89
2021/12/16 16:51:52;;;;;;;;;;;2.90;99.90;;;;;;5038981;28;19920;-90
2021/12/16 16:54:27;;;;;;;;;;;2.80;99.90;;;;;;5054967;28;19905;-88
2021/12/16 16:56:54;;;;;;;;;;;2.70;99.90;;;;;;5037891;28;19972;-88
2021/12/16 16:59:40;;;;;;;;;;;2.70;99.90;;;;;;5056160;28;19919;-88
2021/12/16 17:02:32;;;;;;;;;;;2.60;99.90;;;;;;5070956;28;19917;-89
2021/12/16 17:05:08;;;;;;;;;;;2.60;99.90;;;;;;5068299;28;19904;-91
2021/12/16 17:07:40;;;;;;;;;;;2.40;99.90;;;;;;5059083;28;19906;-88
2021/12/16 17:10:18;;;;;;;;;;;2.30;99.90;;;;;;5059283;28;19905;-88
2021/12/16 17:12:43;;;;;;;;;;;2.30;99.90;;;;;;5059602;28;19912;-89
2021/12/16 17:15:28;;;;;;;;;;;2.30;99.90;;;;;;5042398;28;19912;-90
2021/12/16 17:17:53;;;;;;;;;;;2.00;99.90;;;;;;5057540;28;19905;-89
2021/12/16 17:20:22;;;;;;;;;;;1.80;99.90;;;;;;5040356;28;19967;-88
2021/12/16 17:22:52;;;;;;;;;;;1.70;99.90;;;;;;5056790;28;19904;-88
2021/12/16 17:25:19;;;;;;;;;;;1.60;99.90;;;;;;5057364;28;19911;-88
2021/12/16 17:27:49;;;;;;;;;;;1.60;99.90;;;;;;5039882;28;19913;-88
2021/12/16 17:30:16;;;;;;;;;;;1.50;99.90;;;;;;5055697;28;19934;-89
2021/12/16 17:32:44;;;;;;;;;;;1.50;99.90;;;;;;5056688;28;19923;-89
2021/12/16 17:35:14;;;;;;;;;;;1.50;99.90;;;;;;5056728;28;19908;-88
2021/12/16 17:37:41;;;;;;;;;;;1.40;99.90;;;;;;5070762;28;19916;-89
2021/12/16 17:40:19;;;;;;;;;;;1.30;99.90;;;;;;5069313;28;19916;-88
2021/12/16 17:42:46;;;;;;;;;;;1.20;99.90;;;;;;5072636;28;19911;-89
2021/12/16 17:45:14;;;;;;;;;;;1.20;99.90;;;;;;5068753;28;19905;-89
2021/12/16 17:47:41;;;;;;;;;;;1.20;99.90;;;;;;5063704;28;19909;-88
2021/12/16 17:53:12;;;;;;;;;;;1.20;99.90;;;;;;5079570;22;19927;-81
2021/12/16 17:55:40;;;;;;;;;;;1.10;99.90;;;;;;5086298;28;20020;-81
2021/12/16 17:58:11;;;;;;;;;;;1.10;99.90;;;;;;5071900;28;19950;-81
2021/12/16 18:00:47;;;;;;;;;;;1.10;99.90;;;;;;5084242;28;19912;-78
2021/12/16 18:03:15;;;;;;;;;;;1.10;99.90;;;;;;5085403;28;19912;-79
2021/12/16 18:05:49;;;;;;;;;;;1.00;99.90;;;;;;5066980;28;20287;-77
2021/12/16 18:08:28;;;;;;;;;;;0.90;99.90;;;;;;5067115;28;20283;-78
2021/12/16 18:10:54;;;;;;;;;;;0.90;99.90;;;;;;5083642;28;20281;-79
2021/12/16 18:13:32;;;;;;;;;;;0.90;99.90;;;;;;5085275;28;19921;-83
2021/12/16 18:15:57;;;;;;;;;;;1.00;99.90;;;;;;5065047;28;19908;-80
2021/12/16 18:18:24;;;;;;;;;;;1.00;99.90;;;;;;5083385;28;19970;-78
2021/12/16 18:20:50;;;;;;;;;;;1.00;99.90;;;;;;5080898;28;19912;-77
2021/12/16 18:23:26;;;;;;;;;;;1.00;99.90;;;;;;5083989;28;19997;-80
2021/12/16 18:25:53;;;;;;;;;;;1.00;99.90;;;;;;5080129;28;19954;-79
2021/12/16 18:28:22;;;;;;;;;;;1.20;99.90;;;;;;5084614;28;19912;-77